sensor_id;sensor_type;location;lat;lon;timestamp;temperature;humidity
69082;DHT22;56184;51.986;5.760;2023-03-01T00:01:14;-0.90;83.00
69082;DHT22;56184;51.986;5.760;2023-03-01T00:03:41;-0.90;83.10
69082;DHT22;56184;51.986;5.760;2023-03-01T00:06:06;-1.00;83.00
69082;DHT22;56184;51.986;5.760;2023-03-01T00:08:33;-1.00;83.00
69082;DHT22;56184;51.986;5.760;2023-03-01T00:11:20;-1.00;83.60
69082;DHT22;56184;51.986;5.760;2023-03-01T00:13:48;-1.10;83.50
69082;DHT22;56184;51.986;5.760;2023-03-01T00:16:16;-1.10;83.50
69082;DHT22;56184;51.986;5.760;2023-03-01T00:18:42;-1.10;83.90
69082;DHT22;56184;51.986;5.760;2023-03-01T00:21:08;-1.10;84.30
69082;DHT22;56184;51.986;5.760;2023-03-01T00:23:35;-1.20;84.80
69082;DHT22;56184;51.986;5.760;2023-03-01T00:26:01;-1.20;84.60
69082;DHT22;56184;51.986;5.760;2023-03-01T00:28:26;-1.30;85.00
69082;DHT22;56184;51.986;5.760;2023-03-01T00:30:52;-1.30;85.40
69082;DHT22;56184;51.986;5.760;2023-03-01T00:33:19;-1.40;85.70
69082;DHT22;56184;51.986;5.760;2023-03-01T00:35:45;-1.40;85.90
69082;DHT22;56184;51.986;5.760;2023-03-01T00:38:11;-1.40;86.20
69082;DHT22;56184;51.986;5.760;2023-03-01T00:40:36;-1.50;86.20
69082;DHT22;56184;51.986;5.760;2023-03-01T00:43:03;-1.50;86.30
69082;DHT22;56184;51.986;5.760;2023-03-01T00:45:29;-1.50;86.70
69082;DHT22;56184;51.986;5.760;2023-03-01T00:47:56;-1.60;87.00
69082;DHT22;56184;51.986;5.760;2023-03-01T00:50:22;-1.60;87.10
69082;DHT22;56184;51.986;5.760;2023-03-01T00:52:52;-1.60;87.30
69082;DHT22;56184;51.986;5.760;2023-03-01T00:55:18;-1.70;87.40
69082;DHT22;56184;51.986;5.760;2023-03-01T00:57:44;-1.70;87.40
69082;DHT22;56184;51.986;5.760;2023-03-01T01:00:10;-1.70;87.70
69082;DHT22;56184;51.986;5.760;2023-03-01T01:02:37;-1.70;88.10
69082;DHT22;56184;51.986;5.760;2023-03-01T01:05:03;-1.70;88.00
69082;DHT22;56184;51.986;5.760;2023-03-01T01:07:28;-1.80;88.10
69082;DHT22;56184;51.986;5.760;2023-03-01T01:09:54;-1.80;88.60
69082;DHT22;56184;51.986;5.760;2023-03-01T01:12:20;-1.80;89.20
69082;DHT22;56184;51.986;5.760;2023-03-01T01:14:45;-1.90;89.10
69082;DHT22;56184;51.986;5.760;2023-03-01T01:17:11;-1.90;88.90
69082;DHT22;56184;51.986;5.760;2023-03-01T01:19:37;-1.90;88.50
69082;DHT22;56184;51.986;5.760;2023-03-01T01:22:03;-1.90;89.30
69082;DHT22;56184;51.986;5.760;2023-03-01T01:24:29;-2.00;88.90
69082;DHT22;56184;51.986;5.760;2023-03-01T01:26:54;-2.00;89.00
69082;DHT22;56184;51.986;5.760;2023-03-01T01:29:20;-2.00;89.00
69082;DHT22;56184;51.986;5.760;2023-03-01T01:31:46;-2.00;89.10
69082;DHT22;56184;51.986;5.760;2023-03-01T01:34:18;-2.00;89.60
69082;DHT22;56184;51.986;5.760;2023-03-01T01:36:47;-2.10;89.80
69082;DHT22;56184;51.986;5.760;2023-03-01T01:39:13;-2.10;89.90
69082;DHT22;56184;51.986;5.760;2023-03-01T01:41:40;-2.10;90.10
69082;DHT22;56184;51.986;5.760;2023-03-01T01:44:27;-2.10;88.90
69082;DHT22;56184;51.986;5.760;2023-03-01T01:47:03;-2.20;89.20
69082;DHT22;56184;51.986;5.760;2023-03-01T01:49:40;-2.30;89.40
69082;DHT22;56184;51.986;5.760;2023-03-01T01:52:17;-2.30;89.20
69082;DHT22;56184;51.986;5.760;2023-03-01T01:57:16;-2.30;89.60
69082;DHT22;56184;51.986;5.760;2023-03-01T01:59:47;-2.40;89.80
69082;DHT22;56184;51.986;5.760;2023-03-01T02:02:14;-2.50;90.20
69082;DHT22;56184;51.986;5.760;2023-03-01T02:04:40;-2.50;90.40
69082;DHT22;56184;51.986;5.760;2023-03-01T02:07:18;-2.50;90.50
69082;DHT22;56184;51.986;5.760;2023-03-01T02:09:47;-2.50;90.30
69082;DHT22;56184;51.986;5.760;2023-03-01T02:12:14;-2.50;90.40
69082;DHT22;56184;51.986;5.760;2023-03-01T02:14:40;-2.50;90.50
69082;DHT22;56184;51.986;5.760;2023-03-01T02:17:06;-2.60;90.60
69082;DHT22;56184;51.986;5.760;2023-03-01T02:22:25;-2.60;91.20
69082;DHT22;56184;51.986;5.760;2023-03-01T02:30:39;-2.70;90.70
69082;DHT22;56184;51.986;5.760;2023-03-01T02:33:26;-2.70;90.90
69082;DHT22;56184;51.986;5.760;2023-03-01T02:35:54;-2.70;91.30
69082;DHT22;56184;51.986;5.760;2023-03-01T02:38:29;-2.70;91.60
69082;DHT22;56184;51.986;5.760;2023-03-01T02:40:56;-2.80;91.50
69082;DHT22;56184;51.986;5.760;2023-03-01T02:43:25;-2.80;91.80
69082;DHT22;56184;51.986;5.760;2023-03-01T02:45:54;-2.80;92.10
69082;DHT22;56184;51.986;5.760;2023-03-01T02:48:22;-2.80;91.90
69082;DHT22;56184;51.986;5.760;2023-03-01T02:53:49;-2.90;91.40
69082;DHT22;56184;51.986;5.760;2023-03-01T02:56:18;-3.00;91.50
69082;DHT22;56184;51.986;5.760;2023-03-01T02:58:44;-3.00;91.60
69082;DHT22;56184;51.986;5.760;2023-03-01T03:01:13;-3.00;91.80
69082;DHT22;56184;51.986;5.760;2023-03-01T03:03:40;-3.00;91.60
69082;DHT22;56184;51.986;5.760;2023-03-01T03:06:06;-3.00;92.00
69082;DHT22;56184;51.986;5.760;2023-03-01T03:08:32;-3.00;92.20
69082;DHT22;56184;51.986;5.760;2023-03-01T03:10:58;-3.10;92.50
69082;DHT22;56184;51.986;5.760;2023-03-01T03:13:23;-3.10;92.10
69082;DHT22;56184;51.986;5.760;2023-03-01T03:16:00;-3.10;92.20
69082;DHT22;56184;51.986;5.760;2023-03-01T03:18:27;-3.10;92.20
69082;DHT22;56184;51.986;5.760;2023-03-01T03:20:53;-3.20;92.20
69082;DHT22;56184;51.986;5.760;2023-03-01T03:23:21;-3.10;91.90
69082;DHT22;56184;51.986;5.760;2023-03-01T03:25:49;-3.20;92.00
69082;DHT22;56184;51.986;5.760;2023-03-01T03:28:15;-3.20;92.20
69082;DHT22;56184;51.986;5.760;2023-03-01T03:30:41;-3.20;92.20
69082;DHT22;56184;51.986;5.760;2023-03-01T03:33:08;-3.20;92.10
69082;DHT22;56184;51.986;5.760;2023-03-01T03:35:43;-3.30;92.10
69082;DHT22;56184;51.986;5.760;2023-03-01T03:38:11;-3.30;92.30
69082;DHT22;56184;51.986;5.760;2023-03-01T03:40:46;-3.30;92.40
69082;DHT22;56184;51.986;5.760;2023-03-01T03:43:18;-3.30;92.40
69082;DHT22;56184;51.986;5.760;2023-03-01T03:45:48;-3.30;92.60
69082;DHT22;56184;51.986;5.760;2023-03-01T03:48:14;-3.30;92.70
69082;DHT22;56184;51.986;5.760;2023-03-01T03:50:41;-3.30;92.80
69082;DHT22;56184;51.986;5.760;2023-03-01T03:53:11;-3.30;92.80
69082;DHT22;56184;51.986;5.760;2023-03-01T03:55:38;-3.40;92.80
69082;DHT22;56184;51.986;5.760;2023-03-01T03:58:09;-3.40;92.90
69082;DHT22;56184;51.986;5.760;2023-03-01T04:00:40;-3.40;93.00
69082;DHT22;56184;51.986;5.760;2023-03-01T04:03:07;-3.40;92.90
69082;DHT22;56184;51.986;5.760;2023-03-01T04:05:33;-3.50;92.80
69082;DHT22;56184;51.986;5.760;2023-03-01T04:07:59;-3.50;92.90
69082;DHT22;56184;51.986;5.760;2023-03-01T04:10:38;-3.50;92.90
69082;DHT22;56184;51.986;5.760;2023-03-01T04:13:06;-3.50;92.80
69082;DHT22;56184;51.986;5.760;2023-03-01T04:15:32;-3.50;92.60
69082;DHT22;56184;51.986;5.760;2023-03-01T04:17:58;-3.60;92.70
69082;DHT22;56184;51.986;5.760;2023-03-01T04:20:27;-3.60;93.10
69082;DHT22;56184;51.986;5.760;2023-03-01T04:22:58;-3.60;93.30
69082;DHT22;56184;51.986;5.760;2023-03-01T04:25:24;-3.60;93.30
69082;DHT22;56184;51.986;5.760;2023-03-01T04:27:50;-3.60;93.20
69082;DHT22;56184;51.986;5.760;2023-03-01T04:30:16;-3.60;93.20
69082;DHT22;56184;51.986;5.760;2023-03-01T04:32:42;-3.70;93.60
69082;DHT22;56184;51.986;5.760;2023-03-01T04:35:08;-3.70;93.70
69082;DHT22;56184;51.986;5.760;2023-03-01T04:37:34;-3.70;93.40
69082;DHT22;56184;51.986;5.760;2023-03-01T04:40:01;-3.70;93.30
69082;DHT22;56184;51.986;5.760;2023-03-01T04:42:26;-3.70;93.60
69082;DHT22;56184;51.986;5.760;2023-03-01T04:44:55;-3.70;93.60
69082;DHT22;56184;51.986;5.760;2023-03-01T04:47:23;-3.70;93.70
69082;DHT22;56184;51.986;5.760;2023-03-01T04:49:48;-3.80;93.80
69082;DHT22;56184;51.986;5.760;2023-03-01T04:52:14;-3.80;93.90
69082;DHT22;56184;51.986;5.760;2023-03-01T04:54:39;-3.80;94.50
69082;DHT22;56184;51.986;5.760;2023-03-01T04:57:08;-3.80;94.40
69082;DHT22;56184;51.986;5.760;2023-03-01T04:59:34;-3.80;94.40
69082;DHT22;56184;51.986;5.760;2023-03-01T05:02:01;-3.80;94.30
69082;DHT22;56184;51.986;5.760;2023-03-01T05:04:27;-3.80;94.10
69082;DHT22;56184;51.986;5.760;2023-03-01T05:06:52;-3.80;93.70
69082;DHT22;56184;51.986;5.760;2023-03-01T05:09:19;-3.90;93.40
69082;DHT22;56184;51.986;5.760;2023-03-01T05:11:44;-3.80;93.20
69082;DHT22;56184;51.986;5.760;2023-03-01T05:14:10;-3.90;93.50
69082;DHT22;56184;51.986;5.760;2023-03-01T05:16:36;-3.90;93.50
69082;DHT22;56184;51.986;5.760;2023-03-01T05:19:03;-3.90;93.70
69082;DHT22;56184;51.986;5.760;2023-03-01T05:21:38;-4.00;93.80
69082;DHT22;56184;51.986;5.760;2023-03-01T05:24:26;-4.00;93.80
69082;DHT22;56184;51.986;5.760;2023-03-01T05:26:53;-4.00;93.70
69082;DHT22;56184;51.986;5.760;2023-03-01T05:29:23;-4.00;93.70
69082;DHT22;56184;51.986;5.760;2023-03-01T05:34:22;-4.00;93.90
69082;DHT22;56184;51.986;5.760;2023-03-01T05:36:48;-4.00;93.70
69082;DHT22;56184;51.986;5.760;2023-03-01T05:39:14;-4.00;93.60
69082;DHT22;56184;51.986;5.760;2023-03-01T05:41:39;-4.00;94.00
69082;DHT22;56184;51.986;5.760;2023-03-01T05:44:08;-4.00;93.80
69082;DHT22;56184;51.986;5.760;2023-03-01T05:46:34;-4.10;94.00
69082;DHT22;56184;51.986;5.760;2023-03-01T05:49:00;-4.10;93.90
69082;DHT22;56184;51.986;5.760;2023-03-01T05:51:25;-4.10;94.00
69082;DHT22;56184;51.986;5.760;2023-03-01T05:54:20;-4.10;94.40
69082;DHT22;56184;51.986;5.760;2023-03-01T05:56:57;-4.10;93.90
69082;DHT22;56184;51.986;5.760;2023-03-01T05:59:26;-4.10;93.80
69082;DHT22;56184;51.986;5.760;2023-03-01T06:01:51;-4.20;93.80
69082;DHT22;56184;51.986;5.760;2023-03-01T06:04:20;-4.20;93.80
69082;DHT22;56184;51.986;5.760;2023-03-01T06:06:46;-4.20;93.90
69082;DHT22;56184;51.986;5.760;2023-03-01T06:09:11;-4.20;94.00
69082;DHT22;56184;51.986;5.760;2023-03-01T06:11:37;-4.20;94.10
69082;DHT22;56184;51.986;5.760;2023-03-01T06:14:03;-4.20;94.00
69082;DHT22;56184;51.986;5.760;2023-03-01T06:16:29;-4.20;94.30
69082;DHT22;56184;51.986;5.760;2023-03-01T06:18:55;-4.20;94.50
69082;DHT22;56184;51.986;5.760;2023-03-01T06:21:20;-4.20;94.70
69082;DHT22;56184;51.986;5.760;2023-03-01T06:24:04;-4.30;94.60
69082;DHT22;56184;51.986;5.760;2023-03-01T06:26:32;-4.30;94.30
69082;DHT22;56184;51.986;5.760;2023-03-01T06:29:58;-4.30;94.80
69082;DHT22;56184;51.986;5.760;2023-03-01T06:32:23;-4.30;94.50
69082;DHT22;56184;51.986;5.760;2023-03-01T06:34:49;-4.30;94.40
69082;DHT22;56184;51.986;5.760;2023-03-01T06:37:15;-4.30;94.60
69082;DHT22;56184;51.986;5.760;2023-03-01T06:39:41;-4.20;94.80
69082;DHT22;56184;51.986;5.760;2023-03-01T06:42:08;-4.20;95.10
69082;DHT22;56184;51.986;5.760;2023-03-01T06:44:35;-4.20;95.30
69082;DHT22;56184;51.986;5.760;2023-03-01T06:47:01;-4.20;95.60
69082;DHT22;56184;51.986;5.760;2023-03-01T06:49:27;-4.20;95.40
69082;DHT22;56184;51.986;5.760;2023-03-01T06:51:53;-4.20;95.40
69082;DHT22;56184;51.986;5.760;2023-03-01T06:54:18;-4.20;95.30
69082;DHT22;56184;51.986;5.760;2023-03-01T06:56:47;-4.20;95.00
69082;DHT22;56184;51.986;5.760;2023-03-01T06:59:13;-4.20;95.40
69082;DHT22;56184;51.986;5.760;2023-03-01T07:01:39;-4.20;95.30
69082;DHT22;56184;51.986;5.760;2023-03-01T07:04:05;-4.20;95.50
69082;DHT22;56184;51.986;5.760;2023-03-01T07:06:30;-4.20;95.70
69082;DHT22;56184;51.986;5.760;2023-03-01T07:08:59;-4.10;95.80
69082;DHT22;56184;51.986;5.760;2023-03-01T07:11:24;-4.10;95.90
69082;DHT22;56184;51.986;5.760;2023-03-01T07:13:50;-4.10;96.00
69082;DHT22;56184;51.986;5.760;2023-03-01T07:16:15;-4.10;96.00
69082;DHT22;56184;51.986;5.760;2023-03-01T07:18:42;-4.10;96.20
69082;DHT22;56184;51.986;5.760;2023-03-01T07:21:08;-4.10;96.10
69082;DHT22;56184;51.986;5.760;2023-03-01T07:23:34;-4.00;96.10
69082;DHT22;56184;51.986;5.760;2023-03-01T07:26:01;-4.00;96.30
69082;DHT22;56184;51.986;5.760;2023-03-01T07:28:27;-3.90;96.30
69082;DHT22;56184;51.986;5.760;2023-03-01T07:31:04;-3.90;96.50
69082;DHT22;56184;51.986;5.760;2023-03-01T07:33:30;-3.80;96.80
69082;DHT22;56184;51.986;5.760;2023-03-01T07:36:00;-3.80;97.00
69082;DHT22;56184;51.986;5.760;2023-03-01T07:38:29;-3.70;97.20
69082;DHT22;56184;51.986;5.760;2023-03-01T07:41:00;-3.70;97.50
69082;DHT22;56184;51.986;5.760;2023-03-01T07:43:29;-3.60;97.60
69082;DHT22;56184;51.986;5.760;2023-03-01T07:46:01;-3.60;97.90
69082;DHT22;56184;51.986;5.760;2023-03-01T07:48:28;-3.50;98.00
69082;DHT22;56184;51.986;5.760;2023-03-01T07:50:53;-3.40;98.70
69082;DHT22;56184;51.986;5.760;2023-03-01T07:53:19;-3.30;98.40
69082;DHT22;56184;51.986;5.760;2023-03-01T07:55:45;-3.20;98.40
69082;DHT22;56184;51.986;5.760;2023-03-01T07:58:16;-3.10;98.70
69082;DHT22;56184;51.986;5.760;2023-03-01T08:00:42;-3.00;98.80
69082;DHT22;56184;51.986;5.760;2023-03-01T08:03:07;-2.80;99.00
69082;DHT22;56184;51.986;5.760;2023-03-01T08:05:33;-2.70;99.10
69082;DHT22;56184;51.986;5.760;2023-03-01T08:08:02;-2.60;99.30
69082;DHT22;56184;51.986;5.760;2023-03-01T08:10:27;-2.50;99.10
69082;DHT22;56184;51.986;5.760;2023-03-01T08:12:53;-2.30;99.40
69082;DHT22;56184;51.986;5.760;2023-03-01T08:15:18;-2.20;99.30
69082;DHT22;56184;51.986;5.760;2023-03-01T08:17:44;-2.10;99.20
69082;DHT22;56184;51.986;5.760;2023-03-01T08:20:12;-2.00;99.10
69082;DHT22;56184;51.986;5.760;2023-03-01T08:22:38;-1.80;98.90
69082;DHT22;56184;51.986;5.760;2023-03-01T08:25:04;-1.70;98.60
69082;DHT22;56184;51.986;5.760;2023-03-01T08:27:29;-1.60;98.50
69082;DHT22;56184;51.986;5.760;2023-03-01T08:29:55;-1.40;98.50
69082;DHT22;56184;51.986;5.760;2023-03-01T08:32:21;-1.30;98.20
69082;DHT22;56184;51.986;5.760;2023-03-01T08:34:47;-1.20;97.90
69082;DHT22;56184;51.986;5.760;2023-03-01T08:37:15;-1.10;97.80
69082;DHT22;56184;51.986;5.760;2023-03-01T08:39:41;-0.90;97.60
69082;DHT22;56184;51.986;5.760;2023-03-01T08:42:07;-0.80;97.30
69082;DHT22;56184;51.986;5.760;2023-03-01T08:44:33;-0.70;96.90
69082;DHT22;56184;51.986;5.760;2023-03-01T08:47:00;-0.50;96.20
69082;DHT22;56184;51.986;5.760;2023-03-01T08:49:27;-0.40;95.70
69082;DHT22;56184;51.986;5.760;2023-03-01T08:51:54;-0.30;95.20
69082;DHT22;56184;51.986;5.760;2023-03-01T08:54:21;-0.10;94.70
69082;DHT22;56184;51.986;5.760;2023-03-01T08:56:47;0.00;94.40
69082;DHT22;56184;51.986;5.760;2023-03-01T08:59:15;0.20;94.00
69082;DHT22;56184;51.986;5.760;2023-03-01T09:01:41;0.30;93.30
69082;DHT22;56184;51.986;5.760;2023-03-01T09:04:09;0.40;93.20
69082;DHT22;56184;51.986;5.760;2023-03-01T09:06:35;0.50;93.20
69082;DHT22;56184;51.986;5.760;2023-03-01T09:09:02;0.60;92.80
69082;DHT22;56184;51.986;5.760;2023-03-01T09:11:28;0.80;92.60
69082;DHT22;56184;51.986;5.760;2023-03-01T09:13:54;0.90;92.10
69082;DHT22;56184;51.986;5.760;2023-03-01T09:16:20;1.00;91.80
69082;DHT22;56184;51.986;5.760;2023-03-01T09:18:51;1.10;91.10
69082;DHT22;56184;51.986;5.760;2023-03-01T09:21:17;1.20;91.00
69082;DHT22;56184;51.986;5.760;2023-03-01T09:23:46;1.40;90.50
69082;DHT22;56184;51.986;5.760;2023-03-01T09:26:14;1.40;90.70
69082;DHT22;56184;51.986;5.760;2023-03-01T09:28:41;1.50;90.00
69082;DHT22;56184;51.986;5.760;2023-03-01T09:31:07;1.60;89.20
69082;DHT22;56184;51.986;5.760;2023-03-01T09:33:33;1.80;87.70
69082;DHT22;56184;51.986;5.760;2023-03-01T09:36:01;1.80;86.50
69082;DHT22;56184;51.986;5.760;2023-03-01T09:38:27;2.00;86.90
69082;DHT22;56184;51.986;5.760;2023-03-01T09:40:53;2.10;86.50
69082;DHT22;56184;51.986;5.760;2023-03-01T09:43:21;2.20;83.90
69082;DHT22;56184;51.986;5.760;2023-03-01T09:45:50;2.30;82.80
69082;DHT22;56184;51.986;5.760;2023-03-01T09:48:20;2.40;84.30
69082;DHT22;56184;51.986;5.760;2023-03-01T09:50:50;2.60;82.20
69082;DHT22;56184;51.986;5.760;2023-03-01T09:53:18;2.70;80.80
69082;DHT22;56184;51.986;5.760;2023-03-01T09:56:03;2.80;80.00
69082;DHT22;56184;51.986;5.760;2023-03-01T09:58:59;2.90;80.30
69082;DHT22;56184;51.986;5.760;2023-03-01T10:01:48;3.00;78.30
69082;DHT22;56184;51.986;5.760;2023-03-01T10:09:40;3.50;74.70
69082;DHT22;56184;51.986;5.760;2023-03-01T10:12:18;3.80;75.20
69082;DHT22;56184;51.986;5.760;2023-03-01T10:17:42;4.30;72.60
69082;DHT22;56184;51.986;5.760;2023-03-01T10:20:25;4.70;71.00
69082;DHT22;56184;51.986;5.760;2023-03-01T10:22:52;4.70;70.50
69082;DHT22;56184;51.986;5.760;2023-03-01T10:25:44;4.80;69.60
69082;DHT22;56184;51.986;5.760;2023-03-01T10:31:19;5.40;67.10
69082;DHT22;56184;51.986;5.760;2023-03-01T10:33:47;5.60;66.20
69082;DHT22;56184;51.986;5.760;2023-03-01T10:36:16;5.70;67.00
69082;DHT22;56184;51.986;5.760;2023-03-01T10:38:51;5.90;66.40
69082;DHT22;56184;51.986;5.760;2023-03-01T10:41:19;6.10;66.90
69082;DHT22;56184;51.986;5.760;2023-03-01T10:43:48;6.60;65.40
69082;DHT22;56184;51.986;5.760;2023-03-01T10:46:31;7.10;63.50
69082;DHT22;56184;51.986;5.760;2023-03-01T10:49:21;8.00;64.20
69082;DHT22;56184;51.986;5.760;2023-03-01T10:51:50;8.70;65.40
69082;DHT22;56184;51.986;5.760;2023-03-01T10:54:34;9.30;62.30
69082;DHT22;56184;51.986;5.760;2023-03-01T10:57:04;9.60;59.90
69082;DHT22;56184;51.986;5.760;2023-03-01T11:02:17;10.50;59.40
69082;DHT22;56184;51.986;5.760;2023-03-01T11:10:34;12.50;47.80
69082;DHT22;56184;51.986;5.760;2023-03-01T11:13:09;12.90;54.50
69082;DHT22;56184;51.986;5.760;2023-03-01T11:15:39;13.20;53.30
69082;DHT22;56184;51.986;5.760;2023-03-01T11:18:21;13.40;61.40
69082;DHT22;56184;51.986;5.760;2023-03-01T11:20:48;13.90;59.30
69082;DHT22;56184;51.986;5.760;2023-03-01T11:23:16;14.60;60.00
69082;DHT22;56184;51.986;5.760;2023-03-01T11:25:46;15.20;52.80
69082;DHT22;56184;51.986;5.760;2023-03-01T11:28:16;15.70;57.90
69082;DHT22;56184;51.986;5.760;2023-03-01T11:31:06;16.40;48.20
69082;DHT22;56184;51.986;5.760;2023-03-01T11:33:41;17.60;51.40
69082;DHT22;56184;51.986;5.760;2023-03-01T11:38:47;18.60;54.60
69082;DHT22;56184;51.986;5.760;2023-03-01T11:41:17;19.00;49.20
69082;DHT22;56184;51.986;5.760;2023-03-01T11:44:01;19.30;49.10
69082;DHT22;56184;51.986;5.760;2023-03-01T11:49:16;19.80;53.50
69082;DHT22;56184;51.986;5.760;2023-03-01T11:54:48;20.40;53.30
69082;DHT22;56184;51.986;5.760;2023-03-01T11:57:40;20.50;52.00
69082;DHT22;56184;51.986;5.760;2023-03-01T12:00:25;20.70;47.90
69082;DHT22;56184;51.986;5.760;2023-03-01T12:17:07;23.90;41.50
69082;DHT22;56184;51.986;5.760;2023-03-01T12:20:09;24.80;42.50
69082;DHT22;56184;51.986;5.760;2023-03-01T12:23:15;25.40;40.30
69082;DHT22;56184;51.986;5.760;2023-03-01T12:26:05;25.70;36.10
69082;DHT22;56184;51.986;5.760;2023-03-01T12:36:55;26.20;41.80
69082;DHT22;56184;51.986;5.760;2023-03-01T12:39:56;26.30;38.80
69082;DHT22;56184;51.986;5.760;2023-03-01T12:45:31;25.40;42.00
69082;DHT22;56184;51.986;5.760;2023-03-01T12:50:46;24.80;29.60
69082;DHT22;56184;51.986;5.760;2023-03-01T12:53:40;24.50;38.50
69082;DHT22;56184;51.986;5.760;2023-03-01T12:56:09;24.40;39.60
69082;DHT22;56184;51.986;5.760;2023-03-01T13:01:49;23.80;39.10
69082;DHT22;56184;51.986;5.760;2023-03-01T13:10:31;22.60;38.00
69082;DHT22;56184;51.986;5.760;2023-03-01T13:13:11;22.60;35.40
69082;DHT22;56184;51.986;5.760;2023-03-01T13:15:38;22.90;34.60
69082;DHT22;56184;51.986;5.760;2023-03-01T13:20:46;24.20;30.60
69082;DHT22;56184;51.986;5.760;2023-03-01T13:26:10;24.20;31.60
69082;DHT22;56184;51.986;5.760;2023-03-01T13:28:50;25.00;29.30
69082;DHT22;56184;51.986;5.760;2023-03-01T13:33:52;26.10;27.70
69082;DHT22;56184;51.986;5.760;2023-03-01T13:41:54;27.60;25.80
69082;DHT22;56184;51.986;5.760;2023-03-01T13:46:53;27.50;28.40
69082;DHT22;56184;51.986;5.760;2023-03-01T13:49:27;27.70;27.90
69082;DHT22;56184;51.986;5.760;2023-03-01T13:51:54;28.10;28.60
69082;DHT22;56184;51.986;5.760;2023-03-01T13:54:26;28.40;28.10
69082;DHT22;56184;51.986;5.760;2023-03-01T13:56:54;28.50;26.50
69082;DHT22;56184;51.986;5.760;2023-03-01T13:59:22;28.80;25.80
69082;DHT22;56184;51.986;5.760;2023-03-01T14:01:59;29.20;24.90
69082;DHT22;56184;51.986;5.760;2023-03-01T14:04:30;28.90;25.90
69082;DHT22;56184;51.986;5.760;2023-03-01T14:09:43;28.90;25.70
69082;DHT22;56184;51.986;5.760;2023-03-01T14:19:58;28.60;23.60
69082;DHT22;56184;51.986;5.760;2023-03-01T14:22:26;28.20;23.90
69082;DHT22;56184;51.986;5.760;2023-03-01T14:24:58;28.50;23.20
69082;DHT22;56184;51.986;5.760;2023-03-01T14:27:38;29.00;24.40
69082;DHT22;56184;51.986;5.760;2023-03-01T14:30:19;29.10;23.30
69082;DHT22;56184;51.986;5.760;2023-03-01T14:32:57;29.60;23.60
69082;DHT22;56184;51.986;5.760;2023-03-01T14:35:33;29.10;26.40
69082;DHT22;56184;51.986;5.760;2023-03-01T14:37:59;29.40;26.10
69082;DHT22;56184;51.986;5.760;2023-03-01T14:40:31;28.60;24.60
69082;DHT22;56184;51.986;5.760;2023-03-01T14:43:00;28.20;22.70
69082;DHT22;56184;51.986;5.760;2023-03-01T14:45:28;28.90;23.00
69082;DHT22;56184;51.986;5.760;2023-03-01T14:47:59;28.40;24.40
69082;DHT22;56184;51.986;5.760;2023-03-01T14:50:30;28.50;25.30
69082;DHT22;56184;51.986;5.760;2023-03-01T14:53:00;28.30;23.10
69082;DHT22;56184;51.986;5.760;2023-03-01T14:57:56;28.10;22.40
69082;DHT22;56184;51.986;5.760;2023-03-01T15:00:28;28.50;23.10
69082;DHT22;56184;51.986;5.760;2023-03-01T15:02:56;27.80;24.70
69082;DHT22;56184;51.986;5.760;2023-03-01T15:05:30;27.80;22.90
69082;DHT22;56184;51.986;5.760;2023-03-01T15:08:01;27.90;23.20
69082;DHT22;56184;51.986;5.760;2023-03-01T15:10:30;27.20;24.10
69082;DHT22;56184;51.986;5.760;2023-03-01T15:13:52;26.40;27.10
69082;DHT22;56184;51.986;5.760;2023-03-01T15:16:07;26.00;23.50
69082;DHT22;56184;51.986;5.760;2023-03-01T15:18:34;26.00;23.10
69082;DHT22;56184;51.986;5.760;2023-03-01T15:21:23;25.80;27.70
69082;DHT22;56184;51.986;5.760;2023-03-01T15:23:53;25.00;23.90
69082;DHT22;56184;51.986;5.760;2023-03-01T15:26:33;24.30;24.50
69082;DHT22;56184;51.986;5.760;2023-03-01T15:29:00;23.60;27.30
69082;DHT22;56184;51.986;5.760;2023-03-01T15:31:36;22.80;26.00
69082;DHT22;56184;51.986;5.760;2023-03-01T15:34:23;21.90;26.30
69082;DHT22;56184;51.986;5.760;2023-03-01T15:36:50;21.20;27.60
69082;DHT22;56184;51.986;5.760;2023-03-01T15:41:54;19.90;27.70
69082;DHT22;56184;51.986;5.760;2023-03-01T15:44:32;19.30;28.70
69082;DHT22;56184;51.986;5.760;2023-03-01T15:46:58;18.90;28.60
69082;DHT22;56184;51.986;5.760;2023-03-01T15:49:38;18.60;30.90
69082;DHT22;56184;51.986;5.760;2023-03-01T15:52:22;18.30;29.30
69082;DHT22;56184;51.986;5.760;2023-03-01T15:55:04;18.00;31.40
69082;DHT22;56184;51.986;5.760;2023-03-01T15:57:31;17.50;31.40
69082;DHT22;56184;51.986;5.760;2023-03-01T16:00:02;17.20;32.50
69082;DHT22;56184;51.986;5.760;2023-03-01T16:02:36;17.00;33.90
69082;DHT22;56184;51.986;5.760;2023-03-01T16:05:03;16.60;33.30
69082;DHT22;56184;51.986;5.760;2023-03-01T16:07:28;16.40;34.60
69082;DHT22;56184;51.986;5.760;2023-03-01T16:09:56;16.20;39.60
69082;DHT22;56184;51.986;5.760;2023-03-01T16:12:22;15.90;34.80
69082;DHT22;56184;51.986;5.760;2023-03-01T16:14:50;15.70;34.80
69082;DHT22;56184;51.986;5.760;2023-03-01T16:17:15;15.40;35.90
69082;DHT22;56184;51.986;5.760;2023-03-01T16:19:41;15.00;37.30
69082;DHT22;56184;51.986;5.760;2023-03-01T16:22:09;14.80;37.60
69082;DHT22;56184;51.986;5.760;2023-03-01T16:24:35;14.40;41.70
69082;DHT22;56184;51.986;5.760;2023-03-01T16:27:01;14.10;37.90
69082;DHT22;56184;51.986;5.760;2023-03-01T16:29:27;13.90;44.40
69082;DHT22;56184;51.986;5.760;2023-03-01T16:31:54;13.60;41.60
69082;DHT22;56184;51.986;5.760;2023-03-01T16:34:20;13.30;44.50
69082;DHT22;56184;51.986;5.760;2023-03-01T16:36:47;13.10;39.40
69082;DHT22;56184;51.986;5.760;2023-03-01T16:39:13;12.80;38.70
69082;DHT22;56184;51.986;5.760;2023-03-01T16:41:38;12.50;40.10
69082;DHT22;56184;51.986;5.760;2023-03-01T16:44:04;12.30;40.00
69082;DHT22;56184;51.986;5.760;2023-03-01T16:46:30;12.00;41.10
69082;DHT22;56184;51.986;5.760;2023-03-01T16:48:56;11.70;41.30
69082;DHT22;56184;51.986;5.760;2023-03-01T16:51:23;11.50;40.90
69082;DHT22;56184;51.986;5.760;2023-03-01T16:53:49;11.20;42.80
69082;DHT22;56184;51.986;5.760;2023-03-01T16:56:16;11.20;43.40
69082;DHT22;56184;51.986;5.760;2023-03-01T16:58:42;11.00;43.60
69082;DHT22;56184;51.986;5.760;2023-03-01T17:01:13;10.90;44.10
69082;DHT22;56184;51.986;5.760;2023-03-01T17:03:39;10.70;46.50
69082;DHT22;56184;51.986;5.760;2023-03-01T17:06:08;10.60;44.70
69082;DHT22;56184;51.986;5.760;2023-03-01T17:08:34;10.40;44.50
69082;DHT22;56184;51.986;5.760;2023-03-01T17:11:10;10.20;46.50
69082;DHT22;56184;51.986;5.760;2023-03-01T17:13:37;10.10;48.40
69082;DHT22;56184;51.986;5.760;2023-03-01T17:16:05;9.90;48.10
69082;DHT22;56184;51.986;5.760;2023-03-01T17:18:31;9.90;48.30
69082;DHT22;56184;51.986;5.760;2023-03-01T17:20:57;9.70;47.90
69082;DHT22;56184;51.986;5.760;2023-03-01T17:23:23;9.50;47.30
69082;DHT22;56184;51.986;5.760;2023-03-01T17:25:49;9.40;50.00
69082;DHT22;56184;51.986;5.760;2023-03-01T17:28:14;9.30;52.00
69082;DHT22;56184;51.986;5.760;2023-03-01T17:30:42;9.20;50.90
69082;DHT22;56184;51.986;5.760;2023-03-01T17:33:10;9.10;51.50
69082;DHT22;56184;51.986;5.760;2023-03-01T17:35:35;8.90;51.30
69082;DHT22;56184;51.986;5.760;2023-03-01T17:38:03;8.80;54.00
69082;DHT22;56184;51.986;5.760;2023-03-01T17:40:29;8.70;52.60
69082;DHT22;56184;51.986;5.760;2023-03-01T17:42:54;8.50;54.70